Time;durP1;ratioP1;P1;durP2;ratioP2;P2;SDS_P1;SDS_P2;PMS_P1;PMS_P2;Temp;Humidity;BMP_temperature;BMP_pressure;BME280_temperature;BME280_humidity;BME280_pressure;Samples;Min_cycle;Max_cycle;Signal;HPM_P1;HPM_P2
2023/07/20 00:02:17;;;;;;;3.30;2.60;;;15.60;99.90;;;;;;5041728;28;20494;-53
2023/07/20 00:04:43;;;;;;;4.30;2.50;;;15.60;99.90;;;;;;5038455;28;20834;-53
2023/07/20 00:07:10;;;;;;;3.60;2.60;;;15.60;99.90;;;;;;5038376;28;20578;-52
2023/07/20 00:09:36;;;;;;;2.40;2.20;;;15.60;99.90;;;;;;5034093;28;20520;-52
2023/07/20 00:12:03;;;;;;;3.93;2.80;;;15.50;99.90;;;;;;5034261;28;20540;-52
2023/07/20 00:14:31;;;;;;;4.80;2.47;;;15.50;99.90;;;;;;5032219;28;20542;-52
2023/07/20 00:16:58;;;;;;;4.20;2.57;;;15.50;99.90;;;;;;5032074;28;20529;-52
2023/07/20 00:19:25;;;;;;;2.93;2.63;;;15.50;1.40;;;;;;5031802;28;20465;-51
2023/07/20 00:21:51;;;;;;;7.47;3.30;;;15.50;99.90;;;;;;5036347;28;20999;-52
2023/07/20 00:24:18;;;;;;;9.63;2.20;;;15.50;99.90;;;;;;5029249;28;20930;-52
2023/07/20 00:26:45;;;;;;;4.20;2.10;;;15.50;99.90;;;;;;5042691;28;20513;-52
2023/07/20 00:29:11;;;;;;;3.30;2.10;;;15.60;99.90;;;;;;5035069;28;20545;-52
2023/07/20 00:31:39;;;;;;;10.90;2.83;;;15.60;99.90;;;;;;5042115;28;20832;-52
2023/07/20 00:34:06;;;;;;;5.87;2.67;;;15.60;99.90;;;;;;5034518;28;20522;-52
2023/07/20 00:36:32;;;;;;;5.73;2.97;;;15.60;99.90;;;;;;5042342;28;21026;-52
2023/07/20 00:38:58;;;;;;;8.17;3.07;;;15.60;99.90;;;;;;5034271;28;20487;-52
2023/07/20 00:41:29;;;;;;;5.27;2.50;;;15.70;99.90;;;;;;5031484;28;20411;-52
2023/07/20 00:43:55;;;;;;;7.20;2.20;;;15.70;99.90;;;;;;5041324;28;20867;-52
2023/07/20 00:46:23;;;;;;;4.00;3.00;;;15.70;99.90;;;;;;5032636;28;20614;-53
2023/07/20 00:48:52;;;;;;;6.30;3.00;;;15.70;99.90;;;;;;5037955;28;20541;-51
2023/07/20 00:51:19;;;;;;;4.70;2.30;;;15.70;99.90;;;;;;5034693;28;20526;-52
2023/07/20 00:53:45;;;;;;;3.10;2.90;;;15.70;99.90;;;;;;5035523;28;20577;-52
2023/07/20 00:56:12;;;;;;;8.63;2.93;;;15.70;99.90;;;;;;5042927;28;20593;-52
2023/07/20 00:58:39;;;;;;;3.33;2.73;;;15.70;99.90;;;;;;5033856;28;20494;-52
2023/07/20 01:01:05;;;;;;;2.90;2.70;;;15.60;99.90;;;;;;5031271;28;20553;-52
2023/07/20 01:03:32;;;;;;;4.30;2.70;;;15.60;99.90;;;;;;5035154;28;20557;-52
2023/07/20 01:06:09;;;;;;;7.23;2.60;;;15.60;99.90;;;;;;5037244;28;20500;-52
2023/07/20 01:08:41;;;;;;;7.07;3.07;;;15.50;99.90;;;;;;5043458;28;20969;-52
2023/07/20 01:11:13;;;;;;;2.70;2.50;;;15.50;99.90;;;;;;5045787;28;20534;-52
2023/07/20 01:13:40;;;;;;;2.60;2.40;;;15.40;99.90;;;;;;5030898;28;20561;-53
2023/07/20 01:16:07;;;;;;;3.00;2.70;;;15.40;99.90;;;;;;5033096;28;20602;-53
2023/07/20 01:18:33;;;;;;;2.57;2.30;;;15.30;99.90;;;;;;5038688;28;20561;-52
2023/07/20 01:21:07;;;;;;;4.57;2.57;;;15.20;99.90;;;;;;5046383;28;20536;-51
2023/07/20 01:24:08;;;;;;;2.90;2.73;;;15.20;99.90;;;;;;5032189;28;20459;-51
2023/07/20 01:27:01;;;;;;;3.40;3.10;;;15.20;99.90;;;;;;5028587;28;20585;-52
2023/07/20 01:29:50;;;;;;;3.33;2.80;;;15.10;99.90;;;;;;5029074;28;20878;-52
2023/07/20 01:32:19;;;;;;;2.97;2.70;;;15.20;99.90;;;;;;5032973;28;20550;-52
2023/07/20 01:34:48;;;;;;;2.70;2.50;;;15.20;99.90;;;;;;5032004;28;21039;-52
2023/07/20 01:37:19;;;;;;;2.73;2.53;;;15.20;99.90;;;;;;5033548;28;20505;-51
2023/07/20 01:39:47;;;;;;;2.77;2.57;;;15.20;99.90;;;;;;5041080;28;20454;-51
2023/07/20 01:42:13;;;;;;;3.20;2.43;;;15.30;99.90;;;;;;5040676;28;20501;-52
2023/07/20 01:44:40;;;;;;;6.30;3.13;;;15.20;99.90;;;;;;5033222;28;20565;-52
2023/07/20 01:47:06;;;;;;;5.40;3.20;;;15.30;99.90;;;;;;5040228;28;21003;-52
2023/07/20 01:49:34;;;;;;;3.70;3.10;;;15.30;99.90;;;;;;5035754;28;20545;-53
2023/07/20 01:52:01;;;;;;;3.53;2.70;;;15.30;99.90;;;;;;5031456;28;20546;-52
2023/07/20 01:54:27;;;;;;;4.40;4.00;;;15.40;99.90;;;;;;5039579;28;20563;-52
2023/07/20 01:56:54;;;;;;;10.80;3.80;;;15.40;99.90;;;;;;5036696;28;20914;-52
2023/07/20 01:59:20;;;;;;;4.70;3.97;;;15.30;99.90;;;;;;5031712;28;20466;-52
2023/07/20 02:01:47;;;;;;;4.93;3.40;;;15.40;99.90;;;;;;5046699;28;20545;-51
2023/07/20 02:04:14;;;;;;;9.20;5.30;;;15.40;99.90;;;;;;5027387;28;20489;-52
2023/07/20 02:06:42;;;;;;;5.20;4.70;;;15.30;99.90;;;;;;5032705;28;20483;-52
2023/07/20 02:09:09;;;;;;;5.23;4.70;;;15.30;99.90;;;;;;5028019;28;20467;-52
2023/07/20 02:11:35;;;;;;;6.23;5.60;;;15.40;99.90;;;;;;5036911;28;20972;-51
2023/07/20 02:14:02;;;;;;;10.70;4.40;;;15.30;99.90;;;;;;5031296;28;20573;-52
2023/07/20 02:16:28;;;;;;;5.57;4.97;;;15.40;99.90;;;;;;5043190;28;20845;-52
2023/07/20 02:18:56;;;;;;;5.40;4.60;;;15.40;99.90;;;;;;5036011;28;20537;-51
2023/07/20 02:21:23;;;;;;;6.80;5.90;;;15.40;99.90;;;;;;5032986;28;20469;-51
2023/07/20 02:23:51;;;;;;;10.30;5.00;;;15.40;99.90;;;;;;5032106;28;20545;-52
2023/07/20 02:26:17;;;;;;;5.90;5.40;;;15.30;99.90;;;;;;5027828;28;20551;-52
2023/07/20 02:28:44;;;;;;;6.07;5.57;;;15.40;99.90;;;;;;5047746;28;20546;-52
2023/07/20 02:31:10;;;;;;;7.27;6.63;;;15.40;99.90;;;;;;5039610;28;20522;-52
2023/07/20 02:33:37;;;;;;;6.90;6.30;;;15.40;99.90;;;;;;5039166;28;21120;-51
2023/07/20 02:36:03;;;;;;;9.47;7.43;;;15.40;99.90;;;;;;5036305;28;20553;-53
2023/07/20 02:38:30;;;;;;;9.30;8.40;;;15.30;99.90;;;;;;5034338;28;20498;-53
2023/07/20 02:40:58;;;;;;;9.63;8.40;;;15.30;99.90;;;;;;5023765;28;20507;-55
2023/07/20 02:43:24;;;;;;;12.27;9.20;;;15.30;99.90;;;;;;5038960;28;20541;-55
2023/07/20 02:45:51;;;;;;;11.10;8.60;;;15.20;99.90;;;;;;5044804;28;21162;-55
2023/07/20 02:48:18;;;;;;;9.90;8.20;;;15.20;99.90;;;;;;5037513;28;20565;-54
2023/07/20 02:50:45;;;;;;;9.83;8.93;;;15.20;99.90;;;;;;5038282;28;20930;-55
2023/07/20 02:53:11;;;;;;;12.90;9.80;;;15.20;99.90;;;;;;5037915;28;20474;-53
2023/07/20 02:55:38;;;;;;;9.30;8.40;;;15.10;99.20;;;;;;5033831;28;20459;-54
2023/07/20 02:58:06;;;;;;;12.40;8.80;;;15.10;96.40;;;;;;5035581;28;20906;-54
2023/07/20 03:00:33;;;;;;;16.00;9.60;;;15.00;96.20;;;;;;5028974;28;20557;-55
2023/07/20 03:03:00;;;;;;;9.37;8.37;;;15.10;93.00;;;;;;5041206;28;20533;-55
2023/07/20 03:05:27;;;;;;;10.20;8.77;;;15.10;91.70;;;;;;5036796;28;20544;-55
2023/07/20 03:07:54;;;;;;;13.07;10.77;;;15.00;91.50;;;;;;5042938;28;20979;-54
2023/07/20 03:10:20;;;;;;;14.47;10.57;;;15.00;88.80;;;;;;5038719;28;20537;-54
2023/07/20 03:12:47;;;;;;;10.10;9.13;;;15.00;86.70;;;;;;5032095;28;20902;-55
2023/07/20 03:15:15;;;;;;;12.63;10.50;;;15.00;86.50;;;;;;5031522;28;21062;-55
2023/07/20 03:17:42;;;;;;;12.47;10.30;;;15.00;85.30;;;;;;5042633;28;20489;-54
2023/07/20 03:20:10;;;;;;;10.97;9.90;;;15.00;84.60;;;;;;5030470;28;20498;-54
2023/07/20 03:22:36;;;;;;;13.80;10.30;;;15.00;82.10;;;;;;5040157;28;20804;-54
2023/07/20 03:25:04;;;;;;;11.40;10.00;;;15.10;83.70;;;;;;5032792;28;20533;-55
2023/07/20 03:27:30;;;;;;;10.90;9.10;;;15.10;83.50;;;;;;5030202;28;20487;-55
2023/07/20 03:29:57;;;;;;;13.23;9.73;;;15.10;83.60;;;;;;5038504;28;20755;-53
2023/07/20 03:32:25;;;;;;;11.10;10.00;;;15.10;84.00;;;;;;5038985;28;21000;-54
2023/07/20 03:34:51;;;;;;;13.60;10.83;;;15.10;84.70;;;;;;5036228;28;20584;-53
2023/07/20 03:37:18;;;;;;;10.93;9.77;;;15.10;84.60;;;;;;5044711;28;21074;-55
2023/07/20 03:39:44;;;;;;;11.87;10.20;;;15.10;85.10;;;;;;5031506;28;20498;-55
2023/07/20 03:42:11;;;;;;;10.67;9.60;;;15.10;85.10;;;;;;5031502;28;20475;-53
2023/07/20 03:44:37;;;;;;;10.60;9.50;;;15.10;84.50;;;;;;5037930;28;20613;-54
2023/07/20 03:47:04;;;;;;;11.40;9.40;;;15.10;84.00;;;;;;5039820;28;21060;-54
2023/07/20 03:49:32;;;;;;;11.10;9.90;;;15.10;83.70;;;;;;5028317;28;20516;-54
2023/07/20 03:51:59;;;;;;;11.13;9.40;;;15.10;83.00;;;;;;5028265;28;20545;-53
2023/07/20 03:54:25;;;;;;;12.60;9.67;;;15.20;84.00;;;;;;5031728;28;20486;-55
2023/07/20 03:56:52;;;;;;;10.60;9.17;;;15.20;83.80;;;;;;5030301;28;20568;-54
2023/07/20 03:59:18;;;;;;;10.10;9.20;;;15.20;84.40;;;;;;5027434;28;20554;-56
2023/07/20 04:01:45;;;;;;;11.60;9.63;;;15.30;84.10;;;;;;5031505;28;20490;-54
2023/07/20 04:04:11;;;;;;;11.20;10.00;;;15.30;85.50;;;;;;5037249;28;20544;-55
2023/07/20 04:06:39;;;;;;;9.63;8.83;;;15.30;86.00;;;;;;5027777;28;21063;-55
2023/07/20 04:09:06;;;;;;;9.33;8.43;;;15.30;85.80;;;;;;5032648;28;20549;-54
2023/07/20 04:11:32;;;;;;;9.97;8.97;;;15.30;85.90;;;;;;5040095;28;20508;-55
2023/07/20 04:13:59;;;;;;;9.70;8.80;;;15.40;87.40;;;;;;5034797;28;20485;-55
2023/07/20 04:16:26;;;;;;;9.17;8.17;;;15.30;88.10;;;;;;5030459;28;20616;-55
2023/07/20 04:18:52;;;;;;;9.30;8.40;;;15.40;89.10;;;;;;5033369;28;20475;-55
2023/07/20 04:21:19;;;;;;;15.97;9.00;;;15.40;89.90;;;;;;5027301;28;20602;-54
2023/07/20 04:23:47;;;;;;;8.80;8.10;;;15.40;90.50;;;;;;5025712;28;20547;-54
2023/07/20 04:26:14;;;;;;;8.93;8.03;;;15.40;90.20;;;;;;5033279;28;20458;-54
2023/07/20 04:28:42;;;;;;;8.93;8.07;;;15.40;93.20;;;;;;5032012;28;20513;-54
2023/07/20 04:31:12;;;;;;;10.90;8.83;;;15.40;93.90;;;;;;5037201;28;20890;-54
2023/07/20 04:33:38;;;;;;;8.43;7.73;;;15.40;95.40;;;;;;5034495;28;20501;-54
2023/07/20 04:36:05;;;;;;;9.37;8.17;;;15.40;98.70;;;;;;5037917;28;20652;-55
2023/07/20 04:38:32;;;;;;;8.17;7.53;;;15.40;99.60;;;;;;5034123;28;20541;-54
2023/07/20 04:41:00;;;;;;;7.00;6.40;;;15.50;99.00;;;;;;5032292;28;20912;-56
2023/07/20 04:43:26;;;;;;;7.73;7.03;;;15.60;99.90;;;;;;5032749;28;20542;-55
2023/07/20 04:45:53;;;;;;;7.40;6.70;;;15.60;99.90;;;;;;5038068;28;20874;-55
2023/07/20 04:48:19;;;;;;;8.30;7.43;;;15.60;99.90;;;;;;5039852;28;20500;-55
2023/07/20 04:50:46;;;;;;;9.40;8.27;;;15.60;99.90;;;;;;5039445;28;20486;-55
2023/07/20 04:53:13;;;;;;;9.03;8.00;;;15.60;99.90;;;;;;5031081;28;20550;-55
2023/07/20 04:55:41;;;;;;;7.50;6.90;;;15.60;99.90;;;;;;5033010;28;20521;-55
2023/07/20 04:58:09;;;;;;;10.47;6.73;;;15.70;99.90;;;;;;5026877;28;21069;-54
2023/07/20 05:00:36;;;;;;;9.23;7.30;;;15.70;99.90;;;;;;5032191;28;20493;-55
2023/07/20 05:03:05;;;;;;;7.33;6.57;;;15.70;99.90;;;;;;5045167;28;20498;-54
2023/07/20 05:05:31;;;;;;;8.37;7.13;;;15.70;99.90;;;;;;5036536;28;20454;-53
2023/07/20 05:07:58;;;;;;;7.90;7.03;;;15.80;99.90;;;;;;5037275;28;20832;-54
2023/07/20 05:10:24;;;;;;;9.77;7.17;;;15.80;99.90;;;;;;5029110;28;20989;-55
2023/07/20 05:12:51;;;;;;;6.73;6.17;;;15.80;99.90;;;;;;5028461;28;20486;-53
2023/07/20 05:15:19;;;;;;;9.10;6.97;;;15.80;99.90;;;;;;5022429;28;20941;-55
2023/07/20 05:17:46;;;;;;;8.47;6.17;;;15.80;99.90;;;;;;5030316;28;20518;-53
2023/07/20 05:20:13;;;;;;;7.50;6.60;;;15.90;99.90;;;;;;5029333;28;20461;-55
2023/07/20 05:22:40;;;;;;;9.83;6.33;;;15.90;99.90;;;;;;5037473;28;21031;-54
2023/07/20 05:25:08;;;;;;;7.13;6.40;;;15.90;99.90;;;;;;5035220;28;20459;-56
2023/07/20 05:27:35;;;;;;;8.93;5.30;;;16.00;99.90;;;;;;5031705;28;20483;-54
2023/07/20 05:30:02;;;;;;;9.37;5.90;;;16.00;99.90;;;;;;5035237;28;20604;-54
2023/07/20 05:32:30;;;;;;;6.57;5.87;;;16.10;99.90;;;;;;5028753;28;20463;-53
2023/07/20 05:34:56;;;;;;;5.43;4.93;;;16.00;99.90;;;;;;5028466;28;20486;-55
2023/07/20 05:37:23;;;;;;;10.43;5.67;;;16.10;99.90;;;;;;5038982;28;20485;-54
2023/07/20 05:39:50;;;;;;;6.00;5.40;;;16.00;99.90;;;;;;5040729;28;20500;-55
2023/07/20 05:42:16;;;;;;;8.10;5.87;;;16.00;99.90;;;;;;5040549;28;20463;-54
2023/07/20 05:44:43;;;;;;;6.53;5.20;;;15.90;99.90;;;;;;5032514;28;20976;-53
2023/07/20 05:47:09;;;;;;;7.67;5.57;;;15.90;99.90;;;;;;5037001;28;20478;-53
2023/07/20 05:49:37;;;;;;;7.00;5.30;;;15.80;99.90;;;;;;5036378;28;20459;-54
2023/07/20 05:52:04;;;;;;;5.77;5.33;;;15.80;99.90;;;;;;5030981;28;20537;-54
2023/07/20 05:54:31;;;;;;;6.10;5.50;;;15.80;99.90;;;;;;5030707;28;20568;-53
2023/07/20 05:56:57;;;;;;;7.10;5.60;;;15.80;99.90;;;;;;5031799;28;20927;-55
2023/07/20 05:59:25;;;;;;;6.20;5.03;;;15.80;99.90;;;;;;5032092;28;20443;-55
2023/07/20 06:01:51;;;;;;;9.53;5.77;;;15.80;99.90;;;;;;5034047;28;21015;-54
2023/07/20 06:04:18;;;;;;;9.57;6.13;;;15.90;99.90;;;;;;5036407;28;20539;-54
2023/07/20 06:06:46;;;;;;;6.43;5.50;;;15.90;99.90;;;;;;5023276;28;20539;-53
2023/07/20 06:09:12;;;;;;;5.33;4.83;;;16.00;99.90;;;;;;5029176;28;20458;-54
2023/07/20 06:11:39;;;;;;;4.83;4.43;;;16.10;99.90;;;;;;5045651;28;20557;-54
2023/07/20 06:14:05;;;;;;;4.20;3.90;;;16.10;99.90;;;;;;5030536;28;20547;-53
2023/07/20 06:16:32;;;;;;;8.17;4.13;;;16.20;99.90;;;;;;5024668;28;20926;-55
2023/07/20 06:19:00;;;;;;;4.13;3.73;;;16.20;99.90;;;;;;5028297;28;20530;-54
2023/07/20 06:21:27;;;;;;;4.93;3.80;;;16.30;99.90;;;;;;5035105;28;20548;-55
2023/07/20 06:23:55;;;;;;;3.87;3.37;;;16.50;99.90;;;;;;5029110;28;20907;-54
2023/07/20 06:26:21;;;;;;;4.43;2.47;;;16.50;99.90;;;;;;5031431;28;20539;-54
2023/07/20 06:28:48;;;;;;;10.97;2.50;;;16.60;99.90;;;;;;5040182;28;20465;-54
2023/07/20 06:31:14;;;;;;;6.10;2.47;;;16.70;24.10;;;;;;5039738;28;20593;-53
2023/07/20 06:33:41;;;;;;;4.40;2.57;;;16.80;33.30;;;;;;5029673;28;21030;-54
2023/07/20 06:36:07;;;;;;;3.67;2.80;;;16.90;33.90;;;;;;5028522;28;20564;-53
2023/07/20 06:38:34;;;;;;;9.00;2.70;;;17.00;48.00;;;;;;5027588;28;21037;-55
2023/07/20 06:41:02;;;;;;;2.93;2.30;;;16.90;53.20;;;;;;5027839;28;20545;-54
2023/07/20 06:43:28;;;;;;;8.10;2.23;;;16.90;51.90;;;;;;5030857;28;20892;-55
2023/07/20 06:45:55;;;;;;;4.03;1.90;;;16.80;47.60;;;;;;5032383;28;20486;-54
2023/07/20 06:48:22;;;;;;;2.30;2.20;;;16.80;54.90;;;;;;5038268;28;20473;-54
2023/07/20 06:50:49;;;;;;;1.60;1.50;;;16.70;52.70;;;;;;5030144;28;20555;-54
2023/07/20 06:53:15;;;;;;;4.30;1.50;;;16.60;76.00;;;;;;5027772;28;20565;-55
2023/07/20 06:55:43;;;;;;;2.90;1.90;;;16.60;66.30;;;;;;5027081;28;21063;-55
2023/07/20 06:58:11;;;;;;;9.13;2.30;;;16.70;71.20;;;;;;5030054;28;20573;-55
2023/07/20 07:00:38;;;;;;;2.13;1.93;;;16.80;69.40;;;;;;5035770;28;20498;-54
2023/07/20 07:03:04;;;;;;;7.20;1.63;;;16.80;72.50;;;;;;5038311;28;20443;-55
2023/07/20 07:05:31;;;;;;;2.23;1.40;;;16.80;68.20;;;;;;5028536;28;20537;-54
2023/07/20 07:07:57;;;;;;;4.47;1.20;;;16.90;85.10;;;;;;5037711;28;21068;-53
2023/07/20 07:10:24;;;;;;;2.80;1.10;;;16.90;96.40;;;;;;5027946;28;20497;-53
2023/07/20 07:12:50;;;;;;;1.63;1.13;;;16.90;99.90;;;;;;5036514;28;20558;-55
2023/07/20 07:15:18;;;;;;;1.67;1.23;;;17.00;99.90;;;;;;5033596;28;20569;-53
2023/07/20 07:17:45;;;;;;;4.00;1.00;;;17.10;99.90;;;;;;5029233;28;20574;-54
2023/07/20 07:20:12;;;;;;;2.17;0.97;;;17.30;99.90;;;;;;5029415;28;20555;-55
2023/07/20 07:22:38;;;;;;;3.10;1.27;;;17.40;99.90;;;;;;5043768;28;20458;-53
2023/07/20 07:25:07;;;;;;;5.03;1.00;;;17.60;99.90;;;;;;5022478;28;20550;-55
2023/07/20 07:27:34;;;;;;;5.40;1.20;;;17.70;99.90;;;;;;5029384;28;20818;-54
2023/07/20 07:30:00;;;;;;;4.50;1.00;;;17.70;99.90;;;;;;5029436;28;20469;-52
2023/07/20 07:32:28;;;;;;;3.23;1.03;;;17.70;99.90;;;;;;5033159;28;20597;-55
2023/07/20 07:34:55;;;;;;;2.23;1.23;;;17.70;99.90;;;;;;5028690;28;20566;-53
2023/07/20 07:37:21;;;;;;;1.70;0.83;;;17.70;99.90;;;;;;5036025;28;20560;-53
2023/07/20 07:39:48;;;;;;;1.30;1.20;;;17.70;99.90;;;;;;5032099;28;20493;-55
2023/07/20 07:42:14;;;;;;;4.20;1.50;;;17.70;99.90;;;;;;5032884;28;20509;-57
2023/07/20 07:44:41;;;;;;;12.30;1.57;;;17.80;99.90;;;;;;5021585;28;20965;-54
2023/07/20 07:47:08;;;;;;;4.00;1.20;;;17.80;99.90;;;;;;5029030;28;20482;-54
2023/07/20 07:49:36;;;;;;;1.50;0.90;;;17.80;99.90;;;;;;5033684;28;20961;-55
2023/07/20 07:52:02;;;;;;;3.03;0.80;;;17.80;99.90;;;;;;5035933;28;20542;-54
2023/07/20 07:54:29;;;;;;;0.87;0.80;;;17.80;99.90;;;;;;5021405;28;20462;-55
2023/07/20 07:56:56;;;;;;;3.13;0.90;;;17.70;99.90;;;;;;5028239;28;20485;-55
2023/07/20 07:59:22;;;;;;;1.57;0.80;;;17.80;99.90;;;;;;5025804;28;20638;-56
2023/07/20 08:01:49;;;;;;;2.10;0.90;;;17.90;99.90;;;;;;5027072;28;20549;-53
2023/07/20 08:04:15;;;;;;;2.07;1.00;;;18.00;99.90;;;;;;5025727;28;20462;-56
2023/07/20 08:06:43;;;;;;;0.60;0.50;;;18.00;99.90;;;;;;5034180;28;20506;-55
2023/07/20 08:09:10;;;;;;;10.63;1.10;;;18.00;99.90;;;;;;5032174;28;21071;-54
2023/07/20 08:11:37;;;;;;;2.40;1.07;;;18.00;99.90;;;;;;5028877;28;20550;-55
2023/07/20 08:14:03;;;;;;;1.10;0.80;;;18.30;99.90;;;;;;5034725;28;20820;-55
2023/07/20 08:16:30;;;;;;;3.60;1.10;;;18.40;99.90;;;;;;5033024;28;20565;-55
2023/07/20 08:18:56;;;;;;;3.53;0.90;;;18.60;99.90;;;;;;5031530;28;20490;-55
2023/07/20 08:21:23;;;;;;;2.83;0.90;;;18.50;23.80;;;;;;5048414;28;20537;-55
2023/07/20 08:23:51;;;;;;;3.43;0.70;;;18.60;20.20;;;;;;5037926;28;20562;-53
2023/07/20 08:26:17;;;;;;;1.23;0.80;;;18.60;99.90;;;;;;5028284;28;20995;-55
2023/07/20 08:28:45;;;;;;;6.23;0.67;;;18.50;23.60;;;;;;5042697;28;20526;-54
2023/07/20 08:31:11;;;;;;;0.73;0.70;;;18.50;39.80;;;;;;5042624;28;20541;-55
2023/07/20 08:33:38;;;;;;;0.60;0.53;;;18.50;27.70;;;;;;5041121;28;20549;-56
2023/07/20 08:36:05;;;;;;;1.57;0.70;;;18.50;33.20;;;;;;5033822;28;20525;-56
2023/07/20 08:38:32;;;;;;;8.43;0.67;;;18.50;31.10;;;;;;5046543;28;20528;-56
2023/07/20 08:41:01;;;;;;;1.00;0.60;;;18.50;31.00;;;;;;5041731;28;20964;-54
2023/07/20 08:43:29;;;;;;;6.13;0.90;;;18.60;30.70;;;;;;5039473;28;20932;-54
2023/07/20 08:45:56;;;;;;;3.73;1.10;;;18.70;35.20;;;;;;5045381;28;20861;-55
2023/07/20 08:48:23;;;;;;;3.97;0.80;;;18.70;30.60;;;;;;5042152;28;20533;-56
2023/07/20 08:50:52;;;;;;;3.13;0.70;;;18.90;43.00;;;;;;5037826;28;20533;-56
2023/07/20 08:53:19;;;;;;;3.50;0.70;;;18.80;47.00;;;;;;5034141;28;20497;-55
2023/07/20 08:55:46;;;;;;;2.20;0.80;;;18.80;47.30;;;;;;5048430;28;20617;-56
2023/07/20 08:58:16;;;;;;;1.37;0.70;;;18.60;40.60;;;;;;5048112;28;20482;-57
2023/07/20 09:00:43;;;;;;;3.60;0.80;;;18.50;45.90;;;;;;5038984;28;20502;-54
2023/07/20 09:03:09;;;;;;;6.10;1.10;;;18.40;33.10;;;;;;5026753;28;20505;-56
2023/07/20 09:05:36;;;;;;;0.77;0.67;;;18.30;99.90;;;;;;5033683;28;20509;-54
2023/07/20 09:08:03;;;;;;;0.73;0.70;;;18.10;99.90;;;;;;5046819;28;20568;-54
2023/07/20 09:10:30;;;;;;;2.03;0.93;;;18.10;99.90;;;;;;5039308;28;20609;-55
2023/07/20 09:12:57;;;;;;;1.93;0.87;;;18.00;99.90;;;;;;5037199;28;20496;-55
2023/07/20 09:15:24;;;;;;;1.90;0.80;;;17.90;99.90;;;;;;5033584;28;20570;-56
2023/07/20 09:17:53;;;;;;;1.50;0.90;;;17.90;99.90;;;;;;5032209;28;20992;-54
2023/07/20 09:20:21;;;;;;;1.50;0.90;;;17.90;99.90;;;;;;5032215;28;20473;-55
2023/07/20 09:22:47;;;;;;;1.33;0.70;;;18.00;99.90;;;;;;5031957;28;20553;-55
2023/07/20 09:25:15;;;;;;;2.77;0.90;;;18.00;99.90;;;;;;5038616;28;20552;-55
2023/07/20 09:27:42;;;;;;;2.03;0.93;;;18.10;99.90;;;;;;5035766;28;20490;-54
2023/07/20 09:30:12;;;;;;;4.30;1.10;;;18.20;99.90;;;;;;5041975;28;20487;-56
2023/07/20 09:32:42;;;;;;;4.10;0.90;;;18.30;99.90;;;;;;5047067;28;20470;-55
2023/07/20 09:35:15;;;;;;;1.83;1.17;;;18.40;99.90;;;;;;5030240;28;20487;-53
2023/07/20 09:37:47;;;;;;;2.03;0.97;;;18.60;99.90;;;;;;5037343;28;20494;-54
2023/07/20 09:40:16;;;;;;;2.93;0.70;;;18.70;99.90;;;;;;5046771;28;20459;-55
2023/07/20 09:42:43;;;;;;;1.60;0.80;;;18.70;86.50;;;;;;5041142;28;20467;-55
2023/07/20 09:45:11;;;;;;;0.97;0.60;;;18.70;99.90;;;;;;5041840;28;20463;-54
2023/07/20 09:47:38;;;;;;;2.37;0.93;;;18.60;26.50;;;;;;5040435;28;20517;-54
2023/07/20 09:50:10;;;;;;;2.83;0.70;;;18.60;94.70;;;;;;5035788;28;20459;-53
2023/07/20 09:52:38;;;;;;;5.90;1.40;;;18.70;26.70;;;;;;5042214;28;20788;-56
2023/07/20 09:55:07;;;;;;;3.70;0.77;;;18.70;27.20;;;;;;5044317;28;20462;-55
2023/07/20 09:57:34;;;;;;;1.03;0.77;;;18.90;34.50;;;;;;5033248;28;20541;-55
2023/07/20 10:00:01;;;;;;;0.70;0.50;;;19.00;45.90;;;;;;5037476;28;21009;-56
2023/07/20 10:02:32;;;;;;;0.90;0.60;;;19.10;54.40;;;;;;5035921;28;20473;-54
2023/07/20 10:05:03;;;;;;;2.50;0.70;;;19.10;68.60;;;;;;5024746;28;20491;-55
2023/07/20 10:07:31;;;;;;;3.57;0.83;;;19.00;69.70;;;;;;5039754;28;20544;-55
2023/07/20 10:10:02;;;;;;;8.10;0.90;;;18.80;59.70;;;;;;5037690;28;20542;-56
2023/07/20 10:12:31;;;;;;;1.27;0.80;;;18.60;34.40;;;;;;5030866;28;20841;-54
2023/07/20 10:15:05;;;;;;;1.20;0.50;;;18.50;23.00;;;;;;5034313;28;20551;-55
2023/07/20 10:17:32;;;;;;;3.70;0.80;;;18.50;23.50;;;;;;5038794;28;20578;-54
2023/07/20 10:20:04;;;;;;;2.00;0.70;;;18.50;82.90;;;;;;5031313;28;20571;-54
2023/07/20 10:22:36;;;;;;;1.33;1.23;;;18.70;25.10;;;;;;5038172;28;20493;-55
2023/07/20 10:25:05;;;;;;;15.50;2.30;;;18.80;40.60;;;;;;5040740;28;20508;-54
2023/07/20 10:27:32;;;;;;;1.33;0.80;;;18.90;45.20;;;;;;5032442;28;20469;-56
2023/07/20 10:30:01;;;;;;;0.73;0.67;;;18.90;54.90;;;;;;5033234;28;20494;-54
2023/07/20 10:32:28;;;;;;;1.53;0.97;;;19.00;65.70;;;;;;5040134;28;20439;-55
2023/07/20 10:34:57;;;;;;;1.53;0.70;;;18.90;71.20;;;;;;5029540;28;20495;-53
2023/07/20 10:37:50;;;;;;;2.10;0.87;;;18.80;62.50;;;;;;5032493;28;20541;-54
2023/07/20 10:40:31;;;;;;;0.83;0.70;;;18.70;57.30;;;;;;5037908;28;20460;-55
2023/07/20 10:42:59;;;;;;;2.47;0.80;;;18.50;50.40;;;;;;5029702;28;20461;-56
2023/07/20 10:45:43;;;;;;;10.97;0.90;;;18.50;40.50;;;;;;5039528;28;20532;-55
2023/07/20 10:48:19;;;;;;;1.67;0.80;;;18.40;33.90;;;;;;5031162;28;20479;-55
2023/07/20 10:50:46;;;;;;;1.20;1.07;;;18.40;30.70;;;;;;5032829;28;20467;-55
2023/07/20 10:53:16;;;;;;;1.43;0.70;;;18.40;26.70;;;;;;5043195;28;20873;-54
2023/07/20 10:55:43;;;;;;;0.80;0.80;;;18.50;32.10;;;;;;5039430;28;20473;-54
2023/07/20 10:58:12;;;;;;;8.77;1.20;;;18.70;28.00;;;;;;5030281;28;20483;-54
2023/07/20 11:00:39;;;;;;;0.80;0.63;;;19.10;40.60;;;;;;5034911;28;20463;-56
2023/07/20 11:03:06;;;;;;;2.87;1.00;;;19.30;57.70;;;;;;5039196;28;20474;-54
2023/07/20 11:05:37;;;;;;;1.27;0.70;;;19.20;66.90;;;;;;5030935;28;20557;-54
2023/07/20 11:08:05;;;;;;;11.87;1.10;;;19.30;62.50;;;;;;5039709;28;20490;-54
2023/07/20 11:10:33;;;;;;;4.13;0.80;;;20.20;96.50;;;;;;5039087;28;20907;-54
2023/07/20 11:13:19;;;;;;;2.20;0.80;;;21.00;99.90;;;;;;5029795;28;20465;-54
2023/07/20 11:15:47;;;;;;;9.47;0.80;;;21.60;99.90;;;;;;5040570;28;20497;-55
2023/07/20 11:18:14;;;;;;;1.37;0.73;;;21.20;99.90;;;;;;5031918;28;20486;-55
2023/07/20 11:20:41;;;;;;;7.40;0.80;;;20.70;99.90;;;;;;5031840;28;20557;-55
2023/07/20 11:23:08;;;;;;;1.20;0.70;;;20.40;99.90;;;;;;5043445;28;20481;-55
2023/07/20 11:25:40;;;;;;;2.80;1.10;;;20.20;99.90;;;;;;5041604;28;20494;-56
2023/07/20 11:28:08;;;;;;;0.60;0.50;;;19.70;99.90;;;;;;5044353;28;20483;-56
2023/07/20 11:30:36;;;;;;;0.70;0.63;;;19.70;99.90;;;;;;5039117;28;20486;-57
2023/07/20 11:33:02;;;;;;;1.10;0.50;;;19.80;99.90;;;;;;5030810;28;20881;-54
2023/07/20 11:35:29;;;;;;;1.23;0.77;;;20.00;99.90;;;;;;5031932;28;20549;-55
2023/07/20 11:37:56;;;;;;;0.90;0.80;;;19.90;99.90;;;;;;5033489;28;20490;-55
2023/07/20 11:40:24;;;;;;;1.07;0.87;;;19.90;99.90;;;;;;5036011;28;20807;-55
2023/07/20 11:42:51;;;;;;;0.87;0.70;;;19.80;99.90;;;;;;5035376;28;20469;-55
2023/07/20 11:45:19;;;;;;;1.47;0.60;;;19.90;99.90;;;;;;5042558;28;20461;-56
2023/07/20 11:47:45;;;;;;;1.10;1.00;;;19.90;99.90;;;;;;5032135;28;21051;-55
2023/07/20 11:50:13;;;;;;;2.73;0.80;;;19.90;99.90;;;;;;5034709;28;20871;-55
2023/07/20 11:52:40;;;;;;;1.53;0.60;;;19.90;99.90;;;;;;5039988;28;20472;-55
2023/07/20 11:55:08;;;;;;;1.43;0.97;;;19.90;99.90;;;;;;5035281;28;20902;-55
2023/07/20 11:57:35;;;;;;;1.80;0.70;;;19.80;99.90;;;;;;5036283;28;20526;-55
2023/07/20 12:00:08;;;;;;;0.70;0.60;;;20.00;99.90;;;;;;5038682;28;20470;-54
2023/07/20 12:02:35;;;;;;;2.97;0.57;;;20.10;99.90;;;;;;5028839;28;20492;-54
2023/07/20 12:05:03;;;;;;;0.90;0.60;;;20.50;99.90;;;;;;5029141;28;20537;-55
2023/07/20 12:07:30;;;;;;;0.97;0.63;;;20.60;99.90;;;;;;5043614;28;20474;-56
2023/07/20 12:10:08;;;;;;;0.73;0.73;;;21.10;99.90;;;;;;5038912;28;20493;-54
2023/07/20 12:12:34;;;;;;;2.70;0.80;;;21.50;99.90;;;;;;5035976;28;20496;-55
2023/07/20 12:15:16;;;;;;;8.23;0.90;;;21.50;99.90;;;;;;5041926;28;20457;-55
2023/07/20 12:17:43;;;;;;;0.80;0.80;;;21.90;99.90;;;;;;5030902;28;20579;-55
2023/07/20 12:20:11;;;;;;;1.23;0.77;;;21.90;99.90;;;;;;5030684;28;20554;-56
2023/07/20 12:22:40;;;;;;;0.60;0.50;;;22.00;99.90;;;;;;5039979;28;20546;-55
2023/07/20 12:25:07;;;;;;;0.60;0.47;;;22.10;99.90;;;;;;5038915;28;21138;-54
2023/07/20 12:27:33;;;;;;;3.07;0.50;;;22.20;99.90;;;;;;5038929;28;20540;-57
2023/07/20 12:30:00;;;;;;;0.80;0.60;;;22.40;99.90;;;;;;5039694;28;20481;-55
2023/07/20 12:32:28;;;;;;;1.50;0.60;;;22.60;99.90;;;;;;5030157;28;20545;-55
2023/07/20 12:34:54;;;;;;;1.23;0.67;;;22.60;99.90;;;;;;5034740;28;20512;-54
2023/07/20 12:37:21;;;;;;;1.40;0.70;;;22.70;99.90;;;;;;5037620;28;20560;-57
2023/07/20 12:39:47;;;;;;;0.83;0.60;;;22.70;99.90;;;;;;5040561;28;20909;-55
2023/07/20 12:42:15;;;;;;;0.50;0.40;;;23.10;99.90;;;;;;5037341;28;20454;-55
2023/07/20 12:44:41;;;;;;;0.80;0.70;;;24.20;99.90;;;;;;5039211;28;20841;-54
2023/07/20 12:47:08;;;;;;;1.10;0.50;;;24.90;99.90;;;;;;5031209;28;20477;-55
2023/07/20 12:49:36;;;;;;;9.20;0.70;;;24.50;99.90;;;;;;5034880;28;20465;-55